Time;durP1;ratioP1;P1;durP2;ratioP2;P2;SDS_P1;SDS_P2;PMS_P1;PMS_P2;Temp;Humidity;BMP_temperature;BMP_pressure;BME280_temperature;BME280_humidity;BME280_pressure;Samples;Min_cycle;Max_cycle;Signal;HPM_P1;HPM_P2
2021/12/21 00:00:27;;;;;;;28.23;14.15;;;;;;;-3.08;98.68;102618.28;5089770;28;20024;-86
2021/12/21 00:02:53;;;;;;;26.15;14.25;;;;;;;-3.06;98.49;102622.69;5098521;28;20499;-86
2021/12/21 00:05:21;;;;;;;33.28;13.45;;;;;;;-3.08;98.56;102618.28;5104596;28;20040;-86
2021/12/21 00:07:50;;;;;;;25.52;13.10;;;;;;;-3.09;98.41;102617.41;5110028;28;20379;-86
2021/12/21 00:10:18;;;;;;;27.02;13.10;;;;;;;-3.10;98.71;102618.22;5108197;28;20058;-86
2021/12/21 00:13:04;;;;;;;29.77;13.00;;;;;;;-3.11;98.66;102610.38;5092238;28;20113;-86
2021/12/21 00:15:49;;;;;;;26.88;12.52;;;;;;;-3.14;98.36;102608.53;5110233;28;20015;-86
2021/12/21 00:21:08;;;;;;;28.45;12.60;;;;;;;-3.16;98.79;102615.44;5107949;28;20404;-86
2021/12/21 00:23:40;;;;;;;25.35;12.88;;;;;;;-3.16;98.49;102614.53;5110271;28;20034;-86
2021/12/21 00:26:08;;;;;;;26.75;12.75;;;;;;;-3.18;98.43;102605.78;5110176;28;20055;-86
2021/12/21 00:31:13;;;;;;;26.50;12.82;;;;;;;-3.24;98.61;102600.38;5106655;28;20424;-85
2021/12/21 00:33:40;;;;;;;30.17;13.68;;;;;;;-3.27;98.47;102604.63;5109533;28;20035;-85
2021/12/21 00:36:07;;;;;;;26.90;12.73;;;;;;;-3.29;98.11;102603.72;5108612;28;20019;-85
2021/12/21 00:38:33;;;;;;;23.95;13.07;;;;;;;-3.31;98.31;102597.53;5109517;28;20026;-85
2021/12/21 00:40:58;;;;;;;26.95;14.43;;;;;;;-3.33;98.23;102601.84;5107172;28;20054;-85
2021/12/21 00:43:23;;;;;;;26.40;13.18;;;;;;;-3.37;98.20;102593.88;5108956;28;20024;-84
2021/12/21 00:45:49;;;;;;;30.08;13.60;;;;;;;-3.46;98.14;102577.94;5106432;28;20384;-86
2021/12/21 00:48:16;;;;;;;25.33;13.68;;;;;;;-3.41;98.11;102592.00;5109015;28;20031;-85
2021/12/21 00:50:41;;;;;;;30.38;14.38;;;;;;;-3.42;98.12;102587.63;5108099;28;20119;-85
2021/12/21 00:53:07;;;;;;;33.13;14.13;;;;;;;-3.42;98.31;102588.50;5108948;28;20107;-85
2021/12/21 00:55:32;;;;;;;29.35;13.70;;;;;;;-3.43;98.61;102591.91;5109754;28;20019;-85
2021/12/21 00:57:58;;;;;;;32.97;14.70;;;;;;;-3.43;98.35;102581.50;5108388;28;20032;-83
2021/12/21 01:00:24;;;;;;;28.67;13.82;;;;;;;-3.44;98.40;102577.13;5106508;28;20027;-84
2021/12/21 01:02:49;;;;;;;28.08;14.23;;;;;;;-3.50;98.58;102576.94;5108497;28;20487;-84
2021/12/21 01:05:25;;;;;;;29.05;13.43;;;;;;;-3.47;98.69;102581.34;5100142;28;20036;-84
2021/12/21 01:07:54;;;;;;;29.92;14.65;;;;;;;-3.52;98.69;102581.19;5092905;28;20496;-83
2021/12/21 01:18:08;;;;;;;29.42;13.65;;;;;;;-3.55;98.81;102584.59;5089462;28;20035;-83
2021/12/21 01:20:42;;;;;;;26.73;13.52;;;;;;;-3.56;98.91;102582.81;5093859;28;20101;-84
2021/12/21 01:23:33;;;;;;;28.00;14.40;;;;;;;-3.59;98.67;102580.13;5099103;28;20058;-84
2021/12/21 01:26:03;;;;;;;29.35;14.27;;;;;;;-3.60;98.54;102590.44;5091563;28;20081;-84
2021/12/21 01:28:40;;;;;;;26.42;13.18;;;;;;;-3.63;98.67;102592.97;5077937;28;20032;-85
2021/12/21 01:31:38;;;;;;;26.42;14.13;;;;;;;-3.65;98.48;102592.91;5093467;28;20383;-84
2021/12/21 01:42:12;;;;;;;31.17;13.80;;;;;;;-3.74;98.75;102589.09;5062655;28;20071;-84
2021/12/21 01:49:34;;;;;;;25.98;13.05;;;;;;;-3.76;98.60;102582.13;5088532;28;20110;-84
2021/12/21 01:50:07;;;;;;;27.63;12.45;;;;;;;-3.78;99.10;102575.97;5103695;28;20034;-84
2021/12/21 01:52:32;;;;;;;26.65;12.27;;;;;;;-3.79;98.73;102565.50;5090118;28;20473;-83
2021/12/21 01:54:57;;;;;;;23.08;11.95;;;;;;;-3.86;98.65;102568.72;5102010;28;20110;-84
2021/12/21 01:57:23;;;;;;;24.65;12.00;;;;;;;-3.87;98.32;102570.44;5096120;28;20046;-84
2021/12/21 01:59:49;;;;;;;26.55;12.10;;;;;;;-3.85;98.77;102567.88;5092418;28;20047;-84
2021/12/21 02:02:17;;;;;;;29.77;12.45;;;;;;;-3.86;98.78;102566.13;5104108;28;20035;-84
2021/12/21 02:04:42;;;;;;;24.25;12.05;;;;;;;-3.86;98.89;102564.41;5098155;28;20050;-84
2021/12/21 02:07:09;;;;;;;29.85;13.35;;;;;;;-3.88;99.17;102562.59;5107776;28;20035;-83
2021/12/21 02:09:37;;;;;;;34.22;13.25;;;;;;;-3.86;98.84;102567.00;5088714;28;20038;-84
2021/12/21 02:12:16;;;;;;;25.80;11.38;;;;;;;-3.87;98.79;102565.25;5105056;28;20027;-84
2021/12/21 02:14:44;;;;;;;27.02;12.00;;;;;;;-3.91;98.92;102550.34;5108068;28;20392;-84
2021/12/21 02:18:17;;;;;;;27.63;11.98;;;;;;;-3.89;98.61;102553.88;5107531;28;20019;-84
2021/12/21 02:20:20;;;;;;;22.80;11.27;;;;;;;-3.92;98.86;102555.50;5094110;28;20573;-84
2021/12/21 02:23:10;;;;;;;27.23;12.27;;;;;;;-3.91;98.91;102554.66;5108288;28;20031;-84
2021/12/21 02:25:55;;;;;;;26.48;11.88;;;;;;;-3.92;98.68;102555.50;5106750;28;20019;-84
2021/12/21 02:28:34;;;;;;;29.40;11.45;;;;;;;-3.92;99.04;102558.13;5107229;28;20040;-84
2021/12/21 02:30:59;;;;;;;27.38;12.18;;;;;;;-3.93;99.12;102562.44;5098545;28;20032;-84
2021/12/21 02:33:26;;;;;;;26.95;11.32;;;;;;;-3.98;98.79;102558.75;5104860;28;20083;-84
2021/12/21 02:35:52;;;;;;;24.30;11.55;;;;;;;-3.98;98.86;102555.28;5108034;28;20024;-84
2021/12/21 02:38:18;;;;;;;24.23;11.70;;;;;;;-4.02;98.94;102547.34;5107408;28;20056;-83
2021/12/21 02:40:44;;;;;;;27.20;12.18;;;;;;;-3.99;98.69;102553.50;5105873;28;20027;-84
2021/12/21 02:43:10;;;;;;;26.45;12.30;;;;;;;-4.06;98.96;102542.00;5106957;28;20531;-84
2021/12/21 02:45:36;;;;;;;24.17;11.82;;;;;;;-4.06;98.81;102545.47;5107981;28;20157;-84
2021/12/21 02:48:02;;;;;;;25.80;11.85;;;;;;;-4.06;98.66;102550.66;5107686;28;20028;-84
2021/12/21 02:50:28;;;;;;;21.67;12.00;;;;;;;-4.12;98.40;102549.59;5106322;28;20588;-84
2021/12/21 02:52:53;;;;;;;23.42;11.68;;;;;;;-4.12;98.10;102563.47;5108323;28;20027;-84
2021/12/21 02:55:19;;;;;;;25.20;11.40;;;;;;;-4.17;98.37;102540.72;5107215;28;20033;-84
2021/12/21 02:57:44;;;;;;;26.15;12.18;;;;;;;-4.15;98.70;102555.53;5107936;28;20032;-84
2021/12/21 03:00:11;;;;;;;21.08;10.82;;;;;;;-4.19;98.71;102543.25;5084830;28;20413;-83
2021/12/21 03:02:36;;;;;;;27.17;11.60;;;;;;;-4.18;98.33;102552.84;5107901;28;20520;-84
2021/12/21 03:05:03;;;;;;;22.05;11.18;;;;;;;-4.18;98.83;102552.84;5106793;28;20123;-84
2021/12/21 03:10:15;;;;;;;22.75;10.65;;;;;;;-4.19;98.27;102544.97;5105202;28;20097;-84
2021/12/21 03:15:26;;;;;;;23.02;11.45;;;;;;;-4.24;98.51;102544.81;5107225;28;20119;-84
2021/12/21 03:17:53;;;;;;;26.58;11.75;;;;;;;-4.22;98.43;102548.38;5103800;28;20388;-84
2021/12/21 03:20:19;;;;;;;24.73;12.32;;;;;;;-4.24;98.53;102551.72;5104685;28;20035;-84
2021/12/21 03:22:44;;;;;;;21.15;10.57;;;;;;;-4.27;98.38;102548.16;5106961;28;20028;-83
2021/12/21 03:25:10;;;;;;;29.80;11.90;;;;;;;-4.29;98.74;102544.66;5088694;28;20050;-83
2021/12/21 03:27:36;;;;;;;31.20;11.32;;;;;;;-4.29;98.53;102538.56;5107172;28;20104;-83
2021/12/21 03:30:07;;;;;;;25.00;11.20;;;;;;;-4.31;98.40;102535.00;5103717;28;20081;-84
2021/12/21 03:32:32;;;;;;;21.58;11.10;;;;;;;-4.34;98.11;102538.41;5098747;28;20031;-83
2021/12/21 03:34:57;;;;;;;20.70;11.13;;;;;;;-4.36;98.39;102534.84;5107081;28;20380;-83
2021/12/21 03:37:22;;;;;;;23.73;9.98;;;;;;;-4.37;98.17;102540.88;5106433;28;20023;-84
2021/12/21 03:39:50;;;;;;;24.90;10.57;;;;;;;-4.39;98.18;102536.44;5108255;28;20039;-83
2021/12/21 03:42:16;;;;;;;20.35;10.32;;;;;;;-4.47;98.19;102524.88;5109923;28;20023;-83
2021/12/21 03:44:42;;;;;;;25.73;11.00;;;;;;;-4.44;98.18;102525.00;5110796;28;20085;-83
2021/12/21 03:47:10;;;;;;;19.27;11.20;;;;;;;-4.47;98.02;102528.38;5110120;28;20063;-83
2021/12/21 03:52:08;;;;;;;24.15;11.27;;;;;;;-4.48;98.34;102533.50;5110013;28;20027;-84
2021/12/21 03:54:34;;;;;;;23.25;10.85;;;;;;;-4.49;98.47;102535.22;5092353;28;20024;-83
2021/12/21 03:57:00;;;;;;;24.55;10.85;;;;;;;-4.54;98.44;102524.66;5110323;28;20026;-83
2021/12/21 03:59:26;;;;;;;25.55;11.25;;;;;;;-4.53;97.95;102526.41;5109020;28;20024;-83
2021/12/21 04:01:52;;;;;;;24.63;11.07;;;;;;;-4.57;98.12;102516.72;5110257;28;20024;-83
2021/12/21 04:04:18;;;;;;;25.75;10.55;;;;;;;-4.59;98.27;102515.81;5109583;28;20048;-83
2021/12/21 04:06:44;;;;;;;23.35;11.23;;;;;;;-4.58;97.83;102524.47;5109172;28;20069;-83
2021/12/21 04:09:09;;;;;;;23.17;11.77;;;;;;;-4.59;97.96;102523.59;5107797;28;20035;-83
2021/12/21 04:11:34;;;;;;;25.55;11.35;;;;;;;-4.62;97.72;102518.28;5110308;28;20036;-83
2021/12/21 04:14:00;;;;;;;24.00;10.68;;;;;;;-4.69;97.93;102513.66;5109974;28;20031;-83
2021/12/21 04:16:26;;;;;;;21.08;10.32;;;;;;;-4.64;97.85;102521.63;5091659;28;20055;-83
2021/12/21 04:18:51;;;;;;;26.70;10.40;;;;;;;-4.66;97.97;102515.50;5109561;28;20030;-83
2021/12/21 04:21:17;;;;;;;23.13;10.63;;;;;;;-4.68;97.87;102522.34;5108864;28;20035;-83
2021/12/21 04:23:43;;;;;;;22.40;10.25;;;;;;;-4.71;98.05;102528.31;5110086;28;20379;-83
2021/12/21 04:26:10;;;;;;;23.40;11.43;;;;;;;-4.68;98.30;102533.66;5108576;28;20560;-83
2021/12/21 04:28:36;;;;;;;23.30;11.55;;;;;;;-4.68;98.18;102525.84;5109840;28;20040;-83
2021/12/21 04:31:03;;;;;;;25.27;11.57;;;;;;;-4.68;98.48;102524.94;5106593;28;20089;-83
2021/12/21 04:33:29;;;;;;;25.63;11.07;;;;;;;-4.73;98.01;102519.56;5109595;28;20032;-83
2021/12/21 04:35:55;;;;;;;23.20;11.15;;;;;;;-4.72;97.76;102526.56;5109401;28;20383;-83
2021/12/21 04:38:22;;;;;;;21.40;10.30;;;;;;;-4.78;97.65;102516.78;5090819;28;20118;-83
2021/12/21 04:40:58;;;;;;;26.42;11.38;;;;;;;-4.74;97.71;102520.41;5107799;28;20059;-82
2021/12/21 04:43:23;;;;;;;23.45;10.70;;;;;;;-4.81;97.94;102503.72;5108596;28;20585;-83
2021/12/21 04:45:49;;;;;;;25.92;11.80;;;;;;;-4.78;97.81;102511.59;5109076;28;20306;-83
2021/12/21 04:48:14;;;;;;;21.60;11.13;;;;;;;-4.77;97.94;102513.38;5109116;28;20114;-83
2021/12/21 04:50:41;;;;;;;23.38;10.88;;;;;;;-4.78;97.91;102511.59;5105942;28;20115;-84
2021/12/21 04:53:07;;;;;;;21.33;10.93;;;;;;;-4.79;97.88;102511.56;5108956;28;20054;-83
2021/12/21 04:55:33;;;;;;;25.27;11.00;;;;;;;-4.80;98.03;102507.19;5110165;28;20080;-83
2021/12/21 04:57:59;;;;;;;24.83;10.90;;;;;;;-4.84;97.97;102515.69;5108152;28;20036;-83
2021/12/21 05:00:24;;;;;;;21.30;11.05;;;;;;;-4.83;97.33;102515.75;5106516;28;20416;-83
2021/12/21 05:02:50;;;;;;;28.33;11.65;;;;;;;-4.85;97.71;102516.50;5109439;28;20028;-83
2021/12/21 05:05:15;;;;;;;27.02;11.98;;;;;;;-4.89;98.07;102514.59;5108798;28;20051;-83
2021/12/21 05:07:43;;;;;;;23.33;10.05;;;;;;;-4.89;97.97;102520.72;5092352;28;20047;-83
2021/12/21 05:10:10;;;;;;;23.42;10.18;;;;;;;-4.95;97.51;102510.06;5081649;28;20126;-84
2021/12/21 05:12:36;;;;;;;23.58;10.80;;;;;;;-4.94;97.44;102514.44;5072727;28;20066;-84
2021/12/21 05:15:04;;;;;;;24.88;11.65;;;;;;;-4.98;97.57;102516.84;5103452;28;20020;-84
2021/12/21 05:17:29;;;;;;;21.90;11.20;;;;;;;-5.02;97.55;102515.84;5096331;28;20152;-84
2021/12/21 05:19:54;;;;;;;24.02;11.05;;;;;;;-4.99;97.64;102521.16;5095337;28;20130;-84
2021/12/21 05:22:20;;;;;;;25.75;11.13;;;;;;;-5.05;97.53;102514.03;5093317;28;20035;-84
2021/12/21 05:24:45;;;;;;;21.38;10.85;;;;;;;-5.03;97.70;102508.88;5107675;28;20019;-83
2021/12/21 05:27:10;;;;;;;22.50;11.40;;;;;;;-5.05;97.67;102511.44;5108774;28;20015;-83
2021/12/21 05:29:36;;;;;;;24.48;10.90;;;;;;;-5.06;97.47;102504.47;5087192;28;20108;-83
2021/12/21 05:32:03;;;;;;;19.83;10.77;;;;;;;-5.07;97.57;102515.66;5102409;28;20431;-83
2021/12/21 05:34:29;;;;;;;21.88;10.35;;;;;;;-5.06;97.86;102511.34;5088480;28;20024;-83
2021/12/21 05:36:55;;;;;;;24.58;10.80;;;;;;;-5.05;97.90;102515.72;5094308;28;20028;-83
2021/12/21 05:39:24;;;;;;;24.70;10.45;;;;;;;-5.07;97.77;102518.25;5098395;28;20332;-83
2021/12/21 05:41:51;;;;;;;30.67;11.15;;;;;;;-5.07;97.61;102523.44;5108639;28;20016;-83
2021/12/21 05:44:19;;;;;;;24.40;10.77;;;;;;;-5.08;97.40;102524.28;5089764;28;20028;-83
2021/12/21 05:46:44;;;;;;;24.55;11.32;;;;;;;-5.13;97.65;102515.44;5107013;28;20434;-83
2021/12/21 05:49:10;;;;;;;25.08;10.73;;;;;;;-5.14;97.43;102517.94;5098234;28;20085;-83
2021/12/21 05:51:35;;;;;;;28.45;11.52;;;;;;;-5.13;97.59;102525.81;5090701;28;20154;-83
2021/12/21 05:54:00;;;;;;;25.63;11.13;;;;;;;-5.17;97.29;102518.72;5100298;28;20024;-84
2021/12/21 05:56:26;;;;;;;23.17;11.02;;;;;;;-5.17;97.53;102518.72;5088904;28;20023;-83
2021/12/21 05:58:51;;;;;;;22.10;12.25;;;;;;;-5.17;97.79;102521.31;5087851;28;20448;-83
2021/12/21 06:01:16;;;;;;;25.20;11.45;;;;;;;-5.15;97.77;102522.25;5103568;28;20050;-84
2021/12/21 06:03:42;;;;;;;24.10;11.85;;;;;;;-5.17;97.74;102515.25;5097492;28;20078;-84
2021/12/21 06:06:12;;;;;;;29.25;11.77;;;;;;;-5.22;97.70;102511.59;5108101;28;20426;-84
2021/12/21 06:08:38;;;;;;;28.70;13.35;;;;;;;-5.23;97.79;102515.84;5108113;28;20434;-84
2021/12/21 06:11:06;;;;;;;27.35;12.80;;;;;;;-5.25;97.61;102504.53;5105786;28;20031;-83
2021/12/21 06:26:48;;;;;;;26.90;11.55;;;;;;;-5.28;97.61;102512.19;5102292;28;20381;-83
2021/12/21 06:29:14;;;;;;;28.35;12.93;;;;;;;-5.24;97.86;102513.22;5104390;28;20084;-83
2021/12/21 06:31:40;;;;;;;28.90;12.20;;;;;;;-5.32;97.63;102511.19;5107409;28;20019;-83
2021/12/21 06:34:05;;;;;;;30.60;12.00;;;;;;;-5.32;97.90;102506.00;5087825;28;20027;-83
2021/12/21 06:36:31;;;;;;;25.48;11.88;;;;;;;-5.28;98.30;102517.41;5108464;28;20400;-83
2021/12/21 06:38:57;;;;;;;28.95;12.82;;;;;;;-5.30;97.97;102508.69;5105852;28;20470;-84
2021/12/21 06:41:22;;;;;;;31.92;12.95;;;;;;;-5.28;98.01;102515.69;5100760;28;20020;-83
2021/12/21 06:43:48;;;;;;;28.83;12.27;;;;;;;-5.30;97.83;102514.75;5107883;28;20039;-84
2021/12/21 06:46:45;;;;;;;26.40;12.20;;;;;;;-5.32;97.79;102515.50;5096173;28;20028;-83
2021/12/21 06:51:52;;;;;;;27.58;12.18;;;;;;;-5.32;98.26;102521.56;5105601;28;20082;-84
2021/12/21 06:54:19;;;;;;;26.38;12.30;;;;;;;-5.35;98.12;102523.16;5105558;28;20489;-82
2021/12/21 06:56:44;;;;;;;29.13;12.63;;;;;;;-5.36;98.13;102521.38;5102528;28;20030;-83
2021/12/21 06:59:10;;;;;;;27.40;12.15;;;;;;;-5.40;98.16;102515.19;5104128;28;20019;-83
2021/12/21 07:01:38;;;;;;;27.40;12.15;;;;;;;-5.39;98.25;102518.66;5104671;28;20019;-84
2021/12/21 07:04:05;;;;;;;26.95;11.93;;;;;;;-5.46;97.78;102522.72;5107215;28;20123;-84
2021/12/21 07:06:34;;;;;;;27.88;12.27;;;;;;;-5.44;97.76;102534.03;5100622;28;20024;-83
2021/12/21 07:09:12;;;;;;;25.45;11.82;;;;;;;-5.45;97.75;102528.78;5069815;28;20460;-84
2021/12/21 07:19:31;;;;;;;27.63;12.65;;;;;;;-5.57;97.10;102527.44;5091391;28;20046;-83
2021/12/21 07:21:57;;;;;;;28.00;12.10;;;;;;;-5.59;97.59;102523.94;5108355;28;20023;-84
2021/12/21 07:24:24;;;;;;;27.45;12.35;;;;;;;-5.54;97.49;102529.31;5092246;28;20027;-84
2021/12/21 07:26:49;;;;;;;26.90;12.48;;;;;;;-5.55;97.94;102530.13;5111196;28;20590;-84
2021/12/21 07:29:15;;;;;;;27.40;12.32;;;;;;;-5.58;97.52;102530.00;5100527;28;20031;-83
2021/12/21 07:31:40;;;;;;;27.98;13.20;;;;;;;-5.55;97.54;102533.63;5108414;28;20381;-84
2021/12/21 07:34:06;;;;;;;26.27;12.45;;;;;;;-5.55;98.00;102544.00;5099311;28;20028;-85
2021/12/21 07:36:34;;;;;;;27.83;13.45;;;;;;;-5.52;98.01;102540.63;5108523;28;20024;-84
2021/12/21 07:39:01;;;;;;;32.47;13.35;;;;;;;-5.52;97.80;102540.63;5102230;28;20023;-84
2021/12/21 07:41:26;;;;;;;26.55;13.27;;;;;;;-5.56;97.93;102538.72;5112875;28;20107;-85
2021/12/21 07:43:52;;;;;;;32.13;12.98;;;;;;;-5.53;97.93;102542.31;5110781;28;20098;-85
2021/12/21 07:46:18;;;;;;;24.85;12.80;;;;;;;-5.56;97.68;102537.03;5108187;28;20016;-84
2021/12/21 07:48:44;;;;;;;28.27;13.68;;;;;;;-5.54;97.40;102544.88;5090462;28;20090;-84
2021/12/21 07:51:10;;;;;;;27.65;12.82;;;;;;;-5.57;97.35;102536.94;5092040;28;20028;-84
2021/12/21 07:53:35;;;;;;;29.17;12.73;;;;;;;-5.54;97.64;102543.16;5109947;28;20016;-84
2021/12/21 07:56:04;;;;;;;32.50;13.15;;;;;;;-5.52;97.74;102541.53;5090287;28;20487;-84
2021/12/21 07:58:31;;;;;;;28.17;13.70;;;;;;;-5.52;97.74;102545.81;5089968;28;20020;-84
2021/12/21 08:00:58;;;;;;;26.65;12.52;;;;;;;-5.57;97.74;102539.53;5089968;28;20032;-84
2021/12/21 08:03:24;;;;;;;28.08;13.05;;;;;;;-5.56;97.65;102552.59;5091927;28;20019;-85
2021/12/21 08:05:53;;;;;;;31.98;12.77;;;;;;;-5.51;97.69;102552.78;5072527;28;20408;-85
2021/12/21 08:08:21;;;;;;;31.85;14.13;;;;;;;-5.51;98.06;102548.47;5089594;28;20042;-85
2021/12/21 08:11:29;;;;;;;29.77;13.65;;;;;;;-5.48;97.78;102552.91;5074676;28;20488;-85
2021/12/21 08:13:42;;;;;;;28.98;12.50;;;;;;;-5.54;97.90;102543.16;5095315;28;20039;-86
2021/12/21 08:16:08;;;;;;;26.70;13.85;;;;;;;-5.49;97.95;102537.28;5105123;28;20143;-85
2021/12/21 08:18:34;;;;;;;28.20;12.88;;;;;;;-5.43;97.93;102542.69;5101874;28;20126;-86
2021/12/21 08:20:59;;;;;;;33.45;14.20;;;;;;;-5.45;97.45;102562.53;5092328;28;20150;-85
2021/12/21 08:23:26;;;;;;;26.15;14.65;;;;;;;-5.46;98.25;102558.16;5099546;28;20037;-85
2021/12/21 08:25:51;;;;;;;32.50;14.68;;;;;;;-5.40;97.90;102561.88;5108274;28;20023;-84
2021/12/21 08:28:17;;;;;;;34.22;15.20;;;;;;;-5.39;98.34;102555.91;5106335;28;20057;-86
2021/12/21 08:30:42;;;;;;;29.52;14.52;;;;;;;-5.35;98.37;102549.09;5090991;28;20032;-88
2021/12/21 08:33:07;;;;;;;32.40;13.77;;;;;;;-5.32;98.16;102552.72;5107057;28;20272;-88
2021/12/21 08:35:33;;;;;;;31.15;15.15;;;;;;;-5.33;98.56;102547.47;5106408;28;20039;-87
2021/12/21 08:38:07;;;;;;;30.40;14.80;;;;;;;-5.27;98.36;102552.91;5106395;28;20185;-87
2021/12/21 08:40:40;;;;;;;26.80;13.70;;;;;;;-5.23;98.34;102551.31;5082572;28;20036;-86
2021/12/21 08:43:11;;;;;;;33.38;15.40;;;;;;;-5.23;98.56;102547.00;5088756;28;20098;-87
2021/12/21 08:45:38;;;;;;;32.67;16.33;;;;;;;-5.20;98.77;102548.84;5079315;28;20070;-88
2021/12/21 08:48:05;;;;;;;31.45;15.18;;;;;;;-5.20;98.73;102552.34;5098728;28;20036;-87
2021/12/21 08:50:31;;;;;;;34.50;15.73;;;;;;;-5.18;98.84;102552.38;5093718;28;20031;-86
2021/12/21 08:52:57;;;;;;;37.83;17.55;;;;;;;-5.15;99.08;102545.63;5108573;28;20541;-85
2021/12/21 08:55:22;;;;;;;35.63;17.35;;;;;;;-5.14;98.78;102542.22;5105170;28;20259;-88
2021/12/21 08:57:48;;;;;;;37.55;17.08;;;;;;;-5.09;99.24;102547.59;5101428;28;20093;-86
2021/12/21 09:00:13;;;;;;;36.08;17.40;;;;;;;-5.05;99.55;102547.78;5099920;28;20036;-86
2021/12/21 09:02:39;;;;;;;37.83;18.88;;;;;;;-4.98;99.54;102548.88;5101727;28;20039;-89
2021/12/21 09:05:14;;;;;;;38.67;18.42;;;;;;;-4.91;99.71;102555.22;5089329;28;20043;-88
2021/12/21 09:07:43;;;;;;;40.63;18.98;;;;;;;-4.90;99.95;102552.69;5102385;28;20039;-87
2021/12/21 09:10:10;;;;;;;33.78;19.92;;;;;;;-4.82;100.00;102550.38;5100021;28;20122;-86
2021/12/21 09:12:36;;;;;;;38.53;18.42;;;;;;;-4.78;100.00;102555.75;5105345;28;20058;-86
2021/12/21 09:15:03;;;;;;;43.20;19.55;;;;;;;-4.81;100.00;102547.88;5092354;28;20031;-86
2021/12/21 09:17:28;;;;;;;37.67;17.95;;;;;;;-4.76;100.00;102548.03;5102014;28;20031;-86
2021/12/21 09:19:56;;;;;;;39.65;18.00;;;;;;;-4.64;100.00;102558.91;5092909;28;20519;-85
2021/12/21 09:22:21;;;;;;;34.80;18.00;;;;;;;-4.58;100.00;102560.84;5090976;28;20281;-86
2021/12/21 09:24:46;;;;;;;42.40;20.42;;;;;;;-4.57;100.00;102554.81;5106254;28;20495;-86
2021/12/21 09:27:12;;;;;;;39.25;18.80;;;;;;;-4.52;100.00;102554.16;5088739;28;20032;-87
2021/12/21 09:29:38;;;;;;;40.45;19.13;;;;;;;-4.44;100.00;102559.66;5096005;28;20088;-86
2021/12/21 09:32:08;;;;;;;38.03;18.73;;;;;;;-4.37;100.00;102563.38;5104929;28;20106;-88
2021/12/21 09:34:34;;;;;;;40.13;19.42;;;;;;;-4.35;100.00;102565.19;5097938;28;20110;-86
2021/12/21 09:36:59;;;;;;;34.40;18.40;;;;;;;-4.31;100.00;102561.00;5099978;28;20202;-88
2021/12/21 09:39:25;;;;;;;33.65;17.85;;;;;;;-4.30;100.00;102561.06;5084790;28;20027;-86
2021/12/21 09:41:50;;;;;;;37.90;19.73;;;;;;;-4.24;100.00;102563.00;5093017;28;20116;-87
2021/12/21 09:44:16;;;;;;;36.03;19.00;;;;;;;-4.18;100.00;102563.25;5101522;28;20089;-87
2021/12/21 09:46:41;;;;;;;39.30;19.55;;;;;;;-4.12;100.00;102562.59;5087226;28;20035;-86
2021/12/21 09:49:07;;;;;;;44.10;20.45;;;;;;;-4.09;100.00;102565.31;5087863;28;20149;-86
2021/12/21 09:51:32;;;;;;;45.75;19.35;;;;;;;-4.13;100.00;102542.63;5083808;28;20534;-87
2021/12/21 09:53:58;;;;;;;44.42;20.60;;;;;;;-3.99;100.00;102556.13;5092641;28;20036;-87
2021/12/21 09:56:23;;;;;;;40.40;18.40;;;;;;;-3.92;100.00;102563.31;5099551;28;20401;-87
2021/12/21 09:58:50;;;;;;;40.55;19.92;;;;;;;-3.86;100.00;102561.81;5101410;28;20655;-86
2021/12/21 10:01:18;;;;;;;35.17;18.13;;;;;;;-3.82;100.00;102555.00;5104216;28;20571;-87
2021/12/21 10:03:44;;;;;;;33.92;17.98;;;;;;;-3.82;100.00;102550.66;5094847;28;20024;-85
2021/12/21 10:06:10;;;;;;;38.70;20.02;;;;;;;-3.76;100.00;102543.09;5092791;28;20229;-89
2021/12/21 10:08:37;;;;;;;38.25;18.10;;;;;;;-3.67;100.00;102552.94;5094388;28;20063;-90
2021/12/21 10:11:06;;;;;;;35.45;18.20;;;;;;;-3.64;100.00;102550.41;5088019;28;20066;-87
2021/12/21 10:13:35;;;;;;;31.08;18.63;;;;;;;-3.58;100.00;102542.84;5095363;28;20040;-89
2021/12/21 10:16:04;;;;;;;33.22;17.63;;;;;;;-3.48;100.00;102544.03;5080307;28;20044;-87
2021/12/21 10:18:41;;;;;;;32.95;16.90;;;;;;;-3.39;100.00;102538.25;5098081;28;20027;-90
2021/12/21 10:21:09;;;;;;;29.65;16.40;;;;;;;-3.35;100.00;102532.31;5101885;28;20416;-88
2021/12/21 10:23:49;;;;;;;28.50;16.48;;;;;;;-3.22;100.00;102544.88;5100605;28;20024;-89
2021/12/21 10:26:34;;;;;;;30.52;16.83;;;;;;;-3.12;100.00;102539.16;5094843;28;20205;-90
2021/12/21 10:29:02;;;;;;;28.10;15.15;;;;;;;-3.05;99.23;102545.47;5084201;28;20119;-91
2021/12/21 10:31:29;;;;;;;26.25;14.73;;;;;;;-2.95;98.87;102539.69;5095606;28;20463;-89
2021/12/21 10:33:59;;;;;;;27.17;15.50;;;;;;;-2.86;98.56;102539.97;5086245;28;20050;-87
2021/12/21 10:36:26;;;;;;;27.60;13.85;;;;;;;-2.83;98.42;102529.66;5103197;28;20036;-89
2021/12/21 10:38:57;;;;;;;27.63;14.55;;;;;;;-2.71;98.30;102523.94;5099019;28;20035;-91
2021/12/21 10:41:38;;;;;;;28.48;13.98;;;;;;;-2.65;97.54;102525.84;5106071;28;20414;-88
2021/12/21 10:44:21;;;;;;;20.50;12.32;;;;;;;-2.60;97.41;102519.91;5102767;28;20032;-90
2021/12/21 10:46:53;;;;;;;24.67;13.10;;;;;;;-2.52;96.63;102523.63;5103803;28;20480;-90
2021/12/21 10:49:26;;;;;;;32.90;13.65;;;;;;;-2.47;96.92;102530.72;5080561;28;20036;-88
2021/12/21 10:52:07;;;;;;;22.38;11.95;;;;;;;-2.45;96.79;102529.94;5105227;28;20139;-90
2021/12/21 10:54:44;;;;;;;19.77;11.23;;;;;;;-2.43;96.51;102517.81;5097995;28;20034;-90
2021/12/21 10:57:15;;;;;;;22.27;11.70;;;;;;;-2.37;96.63;102522.34;5100118;28;20031;-89
2021/12/21 10:59:45;;;;;;;19.35;11.07;;;;;;;-2.40;96.32;102523.13;5091922;28;20032;-88
2021/12/21 11:02:12;;;;;;;19.65;11.23;;;;;;;-2.40;96.88;102519.63;5092685;28;20384;-88
2021/12/21 11:04:43;;;;;;;24.10;10.98;;;;;;;-2.37;97.10;102528.44;5093074;28;20051;-90
2021/12/21 11:07:26;;;;;;;18.95;10.57;;;;;;;-2.37;96.45;102510.19;5089553;28;20111;-88
2021/12/21 11:09:57;;;;;;;22.45;11.18;;;;;;;-2.30;96.53;102512.13;5105952;28;20044;-87
2021/12/21 11:12:24;;;;;;;21.73;12.35;;;;;;;-2.29;96.90;102502.59;5107312;28;20041;-88
2021/12/21 11:14:51;;;;;;;21.63;11.13;;;;;;;-2.21;96.38;102511.50;5098100;28;20320;-88
2021/12/21 11:17:17;;;;;;;17.15;11.05;;;;;;;-2.19;96.58;102512.41;5104927;28;20388;-88
2021/12/21 11:19:43;;;;;;;20.15;11.77;;;;;;;-2.29;96.46;102506.06;5091930;28;20058;-88
2021/12/21 11:22:09;;;;;;;21.23;10.40;;;;;;;-2.19;96.58;102507.19;5096318;28;20059;-87
2021/12/21 11:24:37;;;;;;;18.58;9.80;;;;;;;-2.17;96.14;102492.50;5098570;28;20032;-90
2021/12/21 11:27:04;;;;;;;13.73;8.63;;;;;;;-2.06;95.29;102496.25;5091719;28;20400;-93
2021/12/21 11:29:31;;;;;;;18.38;9.52;;;;;;;-2.02;95.02;102500.72;5103835;28;20037;-94
2021/12/21 11:32:01;;;;;;;18.13;10.05;;;;;;;-1.97;95.32;102493.00;5103918;28;20106;-83
2021/12/21 11:34:31;;;;;;;17.35;10.18;;;;;;;-1.97;95.16;102485.19;5095771;28;20054;-90
2021/12/21 11:39:42;;;;;;;19.08;11.43;;;;;;;-1.97;95.67;102477.34;5102440;28;20077;-94
2021/12/21 11:42:10;;;;;;;15.27;10.40;;;;;;;-2.03;95.42;102475.47;5111981;28;20046;-89
2021/12/21 11:44:55;;;;;;;20.52;10.63;;;;;;;-2.01;95.77;102462.47;5113266;28;20358;-88
2021/12/21 11:47:30;;;;;;;17.30;10.80;;;;;;;-2.02;95.35;102445.94;5094400;28;20381;-89
2021/12/21 11:50:02;;;;;;;17.75;9.85;;;;;;;-1.96;95.59;102441.75;5105382;28;20027;-88
2021/12/21 11:52:31;;;;;;;18.10;10.27;;;;;;;-1.89;95.26;102443.63;5105447;28;20035;-88
2021/12/21 11:55:04;;;;;;;14.55;9.73;;;;;;;-1.79;95.19;102448.28;5077801;28;20034;-88
2021/12/21 11:57:47;;;;;;;20.23;11.70;;;;;;;-1.79;95.43;102456.09;5096390;28;20024;-88
2021/12/21 12:00:18;;;;;;;19.38;10.63;;;;;;;-1.77;95.20;102457.00;5067582;28;20030;-89
2021/12/21 12:02:46;;;;;;;14.73;9.35;;;;;;;-1.71;95.07;102448.44;5097412;28;20032;-88
2021/12/21 12:05:26;;;;;;;19.58;10.57;;;;;;;-1.69;95.08;102452.88;5105437;28;20044;-88
2021/12/21 12:07:59;;;;;;;14.13;8.75;;;;;;;-1.65;94.47;102451.22;5095767;28;20046;-87
2021/12/21 12:10:25;;;;;;;14.10;8.50;;;;;;;-1.62;93.82;102451.31;5101609;28;20122;-88
2021/12/21 12:12:50;;;;;;;14.27;8.80;;;;;;;-1.59;93.43;102446.13;5090684;28;20170;-88